• Join FlightAware (Why Join?)
  • Login
  • US Flag 
03:59AM EST


 

Airport Tracker/Info


-or-


 

Live Flight TrackerFlight Track Log ✈ VOZ464 ✈ 22-Apr-2013 ✈ YBBN / BNE - YPPH / PER

Flight Track Log - Related Links

Times and Time Zones

All times are in EDT time to prevent confusion due to time zone crossing. See the VOZ464 flight status page for this flight to view local times or setup timezone preferences in your user account.

Time Position Orientation Groundspeed Altitude Reporting Facility
EDT Latitude Longitude Course Direction KTS MPH feet Rate Location/Type
06:53PM -27.3880 153.1230 84° East 11 13  Level FlightAware
06:54PM -27.3870 153.1240 42° Northeast 14 16  Level FlightAware
06:54PM -27.3850 153.1250 24° Northeast 22 25  Level FlightAware
06:55PM -27.3820 153.1270 31° Northeast 24 28  Level FlightAware
06:55PM -27.3790 153.1280 16° North 22 25  Level FlightAware
06:56PM -27.3780 153.1290 42° Northeast 21 24  Level FlightAware
06:56PM -27.3760 153.1300 24° Northeast 20 23  Level FlightAware
06:56PM -27.3740 153.1310 24° Northeast 19 22  Level FlightAware
06:57PM -27.3730 153.1320 42° Northeast 11 13  Level FlightAware
06:57PM -27.3730 153.1330 90° East 7 8  Level FlightAware
06:58PM -27.3740 153.1340 138° Southeast 5 6  Level FlightAware
06:59PM -27.3760 153.1340 180° South 47 54 60 Level FlightAware
06:59PM -27.3860 153.1280 208° Southwest 150 173 120 Level FlightAware
06:59PM -27.3970 153.1220 206° Southwest 180 207 100 1,560 Climbing FlightAware
07:00PM -27.4107 153.1135 195° South 4,200 2,160 Climbing Aus ATC (Calculated)
07:00PM -27.4190 153.1110 204° Southwest 196 226 1,200 -3,960 Descending FlightAware
07:00PM -27.4430 153.1200 162° South 225 259 1,700 1,260 Climbing FlightAware
07:01PM -27.4740 153.1370 154° Southeast 254 292 2,400 2,040 Climbing FlightAware
07:01PM -27.5010 153.1470 154° Southeast 251 289 3,600 2,220 Climbing FlightAware
07:02PM -27.5180 153.1450 186° South 265 305 3,900 1,980 Climbing FlightAware
07:02PM -27.5370 153.1390 196° South 270 311 4,600 2,520 Climbing FlightAware
07:02PM -27.5740 153.1280 195° South 285 328 5,800 1,740 Climbing FlightAware
07:03PM -27.6070 153.1140 201° Southwest 314 361 6,200 900 Climbing FlightAware
07:03PM -27.6250 153.1010 213° Southwest 327 376 6,400 -1,140 Climbing FlightAware
07:03PM -27.5553 153.1344 213° Southwest 268 308 5,500 2,160 Descending Aus ATC (RADAR)
07:03PM -27.6570 153.0660 213° Southwest 340 391 7,500 5,400 Climbing FlightAware
07:04PM -27.6810 153.0290 234° Southwest 349 402 8,400 2,220 Climbing FlightAware
07:04PM -27.6910 153.0050 245° Southwest 350 403 9,000 2,760 Climbing FlightAware
07:05PM -27.7220 152.9280 246° West 350 403 11,200 3,000 Climbing FlightAware
07:05PM -27.7380 152.8870 246° West 343 395 12,500 2,400 Climbing FlightAware
07:06PM -27.7700 152.8120 244° Southwest 360 414 14,000 1,980 Climbing FlightAware
07:07PM -27.8147 152.7558 244° Southwest 368 423 15,200 1,800 Climbing Aus ATC (RADAR)
07:07PM -27.8160 152.7550 244° Southwest 376 433 15,200 1,740 Level FlightAware
07:07PM -27.8640 152.7000 225° Southwest 383 441 16,500 1,920 Climbing FlightAware
07:08PM -27.9220 152.6340 225° Southwest 390 449 18,000 1,800 Climbing FlightAware
07:09PM -27.9710 152.5800 224° Southwest 397 457 19,100 1,800 Climbing FlightAware
07:09PM -28.0270 152.5170 225° Southwest 400 460 20,400 1,860 Climbing FlightAware
07:10PM -28.0850 152.4510 225° Southwest 403 464 21,800 1,740 Climbing FlightAware
07:11PM -28.1380 152.3900 225° Southwest 404 465 22,900 1,620 Climbing FlightAware
07:12PM -28.1970 152.3230 225° Southwest 404 465 24,100 1,620 Climbing FlightAware
07:12PM -28.2428 152.2713 225° Southwest 402 463 25,000 1,500 Climbing Aus ATC (RADAR)
07:12PM -28.2480 152.2650 225° Southwest 403 464 25,100 1,200 Climbing FlightAware
07:13PM -28.3030 152.2030 225° Southwest 406 467 26,000 1,260 Climbing FlightAware
07:13PM -28.3417 152.1582 225° Southwest 405 466 26,500 900 Climbing Aus ATC (RADAR)
07:14PM -28.3620 152.1350 225° Southwest 413 475 26,700 1,080 Climbing FlightAware
07:14PM -28.4150 152.0750 225° Southwest 410 472 27,600 1,500 Climbing FlightAware
07:15PM -28.4692 152.0133 225° Southwest 405 466 28,600 1,440 Climbing Aus ATC (RADAR)
07:15PM -28.4760 152.0050 225° Southwest 407 468 28,700 1,440 Climbing FlightAware
07:16PM -28.5290 151.9430 226° Southwest 398 458 29,800 1,800 Climbing FlightAware
07:17PM -28.5850 151.8800 225° Southwest 379 436 31,300 1,680 Climbing FlightAware
07:17PM -28.6330 151.8240 226° Southwest 372 428 32,200 960 Climbing FlightAware
07:18PM -28.6800 151.7700 225° Southwest 375 432 32,600 540 Climbing FlightAware
07:19PM -28.7380 151.7030 225° Southwest 379 436 33,000 600 Climbing FlightAware
07:19PM -28.7870 151.6460 226° Southwest 381 438 33,500 660 Climbing FlightAware
07:20PM -28.8430 151.5820 225° Southwest 374 430 34,000 360 Climbing FlightAware
07:21PM -28.8843 151.5351 225° Southwest 374 430 34,000  Level Aus ATC (RADAR)
07:21PM -28.8910 151.5270 225° Southwest 373 429 34,000  Level FlightAware
07:21PM -28.9390 151.4710 226° Southwest 372 428 34,000  Level FlightAware
07:22PM -28.9750 151.4280 226° Southwest 372 428 34,000  Level FlightAware
07:22PM -29.0226 151.3742 226° Southwest 370 426 34,000  Level Aus ATC (RADAR)
07:23PM -29.0240 151.3710 226° Southwest 372 428 34,000  Level FlightAware
07:23PM -29.0780 151.3080 226° Southwest 371 427 34,000  Level FlightAware
07:24PM -29.1245 151.2553 226° Southwest 370 426 34,000  Level Aus ATC (RADAR)
07:24PM -29.1260 151.2530 226° Southwest 369 425 34,000  Level FlightAware
07:25PM -29.1800 151.1890 226° Southwest 368 423 34,000  Level FlightAware
07:25PM -29.2258 151.1370 226° Southwest 366 421 34,000  Level Aus ATC (RADAR)
07:25PM -29.2270 151.1340 226° Southwest 368 423 34,000  Level FlightAware
07:26PM -29.2750 151.0780 225° Southwest 367 422 34,000  Level FlightAware
07:27PM -29.3263 151.0184 225° Southwest 367 422 34,000  Level Aus ATC (RADAR)
07:27PM -29.3280 151.0160 225° Southwest 367 422 34,000  Level FlightAware
07:27PM -29.3700 150.9660 226° Southwest 368 423 34,000  Level FlightAware
07:28PM -29.4260 150.9000 226° Southwest 369 425 34,000  Level FlightAware
07:29PM -29.4564 150.8642 226° Southwest 368 423 34,000  Level Aus ATC (RADAR)
07:29PM -29.4700 150.8490 226° Southwest 369 425 34,000  Level FlightAware
07:29PM -29.5110 150.8020 225° Southwest 369 425 34,000  Level FlightAware
07:30PM -29.5620 150.7430 225° Southwest 369 425 34,000  Level FlightAware
07:31PM -29.6030 150.6960 225° Southwest 369 425 34,000  Level FlightAware
07:31PM -29.6525 150.6326 225° Southwest 367 422 34,000  Level Aus ATC (RADAR)
07:32PM -29.6440 150.6490 225° Southwest 369 425 34,000  Level FlightAware
07:32PM -29.6850 150.6020 225° Southwest 369 425 34,000  Level FlightAware
07:33PM -29.7537 150.5112 225° Southwest 372 428 34,000  Level Aus ATC (RADAR)
07:33PM -29.7260 150.5540 226° Southwest 369 425 34,000  Level FlightAware
07:33PM -29.7777 150.4831 226° Southwest 372 428 34,000  Level Aus ATC (RADAR)
07:34PM -29.7780 150.4950 225° Southwest 369 425 34,000  Level FlightAware
07:34PM -29.8190 150.4480 225° Southwest 369 425 34,000  Level FlightAware
07:35PM -29.8600 150.4010 225° Southwest 369 425 34,000  Level FlightAware
07:36PM -29.9010 150.3530 225° Southwest 369 425 34,000  Level FlightAware
07:36PM -29.9420 150.3060 225° Southwest 369 425 34,000  Level FlightAware
07:37PM -29.9930 150.2470 225° Southwest 369 425 34,000  Level FlightAware
07:38PM -30.0340 150.1990 225° Southwest 369 425 34,000  Level FlightAware
07:39PM -30.2052 149.9705 225° Southwest 388 447 34,000  Level Aus ATC (RADAR)
07:40PM -30.3244 149.8217 227° Southwest 383 441 34,000  Level Aus ATC (RADAR)
07:42PM -30.4032 149.6591 241° Southwest 378 435 34,000  Level Aus ATC (RADAR)
07:43PM -30.4720 149.5161 241° Southwest 391 450 34,000  Level Aus ATC (RADAR)
07:45PM -30.5563 149.3403 241° Southwest 396 456 34,000  Level Aus ATC (RADAR)
07:46PM -30.6423 149.1601 241° Southwest 389 448 34,000  Level Aus ATC (RADAR)
07:48PM -30.7177 149.0006 241° Southwest 390 449 34,000  Level Aus ATC (RADAR)
07:49PM -30.7887 148.8501 241° Southwest 391 450 34,000  Level Aus ATC (RADAR)
07:51PM -30.8690 148.6794 241° Southwest 393 452 34,000  Level Aus ATC (RADAR)
07:52PM -30.9538 148.4978 241° Southwest 396 456 34,000  Level Aus ATC (RADAR)
07:54PM -31.0326 148.3293 241° Southwest 406 467 34,000  Level Aus ATC (RADAR)
07:55PM -31.0815 148.2233 242° Southwest 407 468 34,000  Level Aus ATC (RADAR)
07:58PM -31.1750 148.0214 242° Southwest 407 468 34,000  Level Aus ATC (RADAR)
08:00PM -31.3008 147.7476 242° Southwest 399 459 34,000  Level Aus ATC (RADAR)
08:01PM -31.3910 147.5510 242° Southwest 34,000  Level FlightAware
08:01PM -31.4136 147.5004 242° Southwest 409 471 34,000  Level Aus ATC (RADAR)
08:01PM -31.4110 147.5090 242° Southwest 405 466 34,000  Level FlightAware
08:02PM -31.4560 147.4070 243° Southwest 402 463 34,000  Level FlightAware
08:02PM -31.4860 147.3410 242° Southwest 402 463 34,000  Level FlightAware
08:03PM -31.5116 147.2837 242° Southwest 397 457 34,000  Level Aus ATC (RADAR)
08:03PM -31.5210 147.2640 242° Southwest 402 463 34,000  Level FlightAware
08:04PM -31.5620 147.1570 246° West 404 465 34,000  Level FlightAware
08:04PM -31.5833 147.0750 246° West 405 466 34,000  Level Aus ATC (RADAR)
08:05PM -31.5820 147.0790 246° West 402 463 34,000  Level FlightAware
08:05PM -31.6080 146.9800 253° West 405 466 34,000  Level FlightAware
08:06PM -31.6290 146.8990 253° West 406 467 34,000  Level FlightAware
08:06PM -31.6439 146.8401 253° West 398 458 34,000  Level Aus ATC (RADAR)
08:07PM -31.6520 146.8100 253° West 407 468 34,000  Level FlightAware
08:07PM -31.6760 146.7170 253° West 406 467 34,000  Level FlightAware
08:08PM -31.6980 146.6320 253° West 406 467 34,000  Level FlightAware
08:09PM -31.7170 146.5580 253° West 405 466 34,000  Level FlightAware
08:09PM -31.7350 146.4850 254° West 405 466 34,000  Level FlightAware
08:10PM -31.7600 146.3890 253° West 403 464 34,000  Level FlightAware
08:11PM -31.7840 146.2950 253° West 402 463 34,000  Level FlightAware
08:11PM -31.7986 146.2269 253° West 370 426 34,000  Level Aus ATC (RADAR)
08:12PM -31.8130 146.1790 253° West 401 461 34,000  Level FlightAware
08:12PM -31.8330 146.1020 253° West 401 461 34,000  Level FlightAware
08:13PM -31.8500 146.0310 254° West 401 461 34,000  Level FlightAware
08:14PM -31.8720 145.9460 253° West 401 461 34,000  Level FlightAware
08:14PM -31.8912 145.8588 253° West 385 443 34,000  Level Aus ATC (RADAR)
08:14PM -31.8910 145.8750 253° West 401 461 34,000  Level FlightAware
08:15PM -31.9090 145.8030 254° West 401 461 34,000  Level FlightAware
08:16PM -31.9320 145.7150 253° West 401 461 34,000  Level FlightAware
08:16PM -31.9510 145.6440 252° West 401 461 34,000  Level FlightAware
08:17PM -31.9690 145.5720 254° West 401 461 34,000  Level FlightAware
08:18PM -31.9870 145.5010 253° West 401 461 34,000  Level FlightAware
08:18PM -32.0060 145.4300 252° West 401 461 34,000  Level FlightAware
08:19PM -32.0356 145.2761 252° West 405 466 34,000  Level Aus ATC (RADAR)
08:19PM -32.0240 145.3590 252° West 401 461 34,000  Level FlightAware
08:20PM -32.0470 145.2700 253° West 401 461 34,000  Level FlightAware
08:21PM -32.0660 145.1990 252° West 401 461 34,000  Level FlightAware
08:21PM -32.0840 145.1280 253° West 401 461 34,000  Level FlightAware
08:22PM -32.1030 145.0570 252° West 401 461 34,000  Level FlightAware
08:22PM -32.0747 144.9861 252° West 391 450 34,000  Level Aus ATC (RADAR)
08:23PM -32.1210 144.9850 252° West 401 461 34,000  Level FlightAware
08:24PM -32.0997 144.8328 252° West 406 467 34,000  Level Aus ATC (RADAR)
08:27PM -32.1721 144.3803 260° West 36,000  Climbing Aus ATC (Calculated)
08:29PM -32.1905 144.2057 263° West  Level FlightAware Approximate
08:29PM -32.2055 144.1679 260° West 36,000  Level Aus ATC (Calculated)
08:30PM -32.1221 144.2484 39° Northeast  Level FlightAware Approximate
08:31PM -32.2055 144.1679 219° Southwest  Level FlightAware Approximate
08:31PM -32.2680 143.7640 260° West 36,000  Level Aus ATC (Calculated)
08:32PM -32.2972 143.5720 260° West 36,000 -240 Level Aus ATC (Calculated)
08:33PM -32.2914 143.5258 259° West  Level Estimated
08:34PM -32.3234 143.3986 260° West  Level FlightAware Approximate
08:35PM -32.3421 143.2731 260° West  Level FlightAware Approximate
08:35PM -32.3395 143.2905 261° West 36,000  Level Aus ATC (Calculated)
08:36PM -32.3660 143.1115 261° West 36,000 -300 Level Aus ATC (Calculated)
08:37PM -32.3754 143.0479 260° West  Level FlightAware Approximate
08:37PM -32.3915 142.9380 261° West 36,000  Level Aus ATC (Calculated)
08:38PM -32.4016 142.8687 260° West  Level FlightAware Approximate
08:39PM -32.4198 142.7430 260° West  Level FlightAware Approximate
08:40PM -32.4366 142.6259 260° West  Level FlightAware Approximate
08:41PM -32.4546 142.5002 260° West  Level FlightAware Approximate
08:41PM -32.4757 142.2910 260° West 406 467 34,000  Level Aus ATC (RADAR)
08:42PM -32.4724 142.3743 260° West  Level FlightAware Approximate
08:43PM -32.5038 142.0926 260° West 407 468 34,000  Level Aus ATC (RADAR)
08:43PM -32.5081 142.0594 261° West 406 467 34,000  Level Aus ATC (RADAR)
08:45PM -32.5366 141.8610 260° West 408 470 34,000  Level Aus ATC (RADAR)
08:47PM -32.5860 141.4945 261° West 408 470 34,000  Level Aus ATC (RADAR)
08:49PM -32.6147 141.2838 261° West 408 470 34,000  Level Aus ATC (RADAR)
08:50PM -32.6395 141.0950 261° West 408 470 34,000  Level Aus ATC (RADAR)
08:51PM -32.6434 141.0612 262° West 409 471 34,000  Level Aus ATC (RADAR)
08:54PM -32.6995 140.6298 261° West 411 473 34,000  Level Aus ATC (RADAR)
08:56PM -32.7275 140.4218 261° West 404 465 34,000  Level Aus ATC (RADAR)
08:57PM -32.7540 140.2020 262° West 398 458 34,000  Level FlightAware
08:58PM -32.7407 140.3098 262° West 409 471 34,000 180 Level Aus ATC (RADAR)
08:59PM -32.7666 140.1001 262° West 404 465 34,400 600 Climbing Aus ATC (RADAR)
09:01PM -32.7947 139.8719 262° West 397 457 35,900 540 Climbing Aus ATC (RADAR)
09:03PM -32.8313 139.5672 262° West 400 460 36,100  Climbing Aus ATC (RADAR)
09:04PM -32.8560 139.3610 262° West 401 461 36,000  Descending FlightAware
09:04PM -32.8636 139.2938 262° West 400 460 36,100  Climbing Aus ATC (RADAR)
09:05PM -32.8838 139.1197 262° West 400 460 36,100 -60 Level Aus ATC (RADAR)
09:07PM -32.9063 138.9229 262° West 402 463 36,000 -60 Descending Aus ATC (RADAR)
09:07PM -32.9101 138.8912 262° West 397 457 36,000  Level Aus ATC (RADAR)
09:09PM -32.9345 138.6741 262° West 398 458 36,000  Level Aus ATC (RADAR)
09:10PM -32.9550 138.4990 262° West 397 457 36,000  Level FlightAware
09:13PM -32.9677 138.2108 267° West  Level Estimated
09:13PM -32.9758 138.2976 267° West 393 452 36,000  Level Aus ATC (RADAR)
09:14PM -33.0045 138.0322 263° West 388 447 36,000  Level Aus ATC (RADAR)
09:16PM -33.0359 137.7350 263° West 390 449 36,000  Level Aus ATC (RADAR)
09:19PM -33.0552 137.3677 266° West 398 458 36,000  Level Aus ATC (RADAR)
09:20PM -33.0550 137.2970 266° West 396 456 36,000  Level FlightAware
09:20PM -33.0530 137.2230 272° West 394 453 36,000  Level FlightAware
09:20PM -33.0517 137.1729 272° West 398 458 36,000  Level Aus ATC (RADAR)
09:21PM -33.0530 137.1340 272° West 394 453 36,000  Level FlightAware
09:22PM -33.0490 137.0330 273° West 36,000  Level FlightAware
09:22PM -33.0475 136.9667 273° West 394 453 36,000  Level Aus ATC (RADAR)
09:23PM -33.0470 136.9130 273° West 393 452 36,000  Level FlightAware
09:23PM -33.0440 136.8080 272° West 392 451 36,000  Level FlightAware
09:24PM -33.0420 136.7230 272° West 392 451 36,000  Level FlightAware
09:25PM -33.0392 136.6122 272° West 392 451 36,000  Level Aus ATC (RADAR)
09:25PM -33.0410 136.6100 272° West 392 451 36,000  Level FlightAware
09:26PM -33.0410 136.5370 270° West 392 451 36,000  Level FlightAware
09:26PM -33.0341 136.4195 270° West 387 445 36,000  Level Aus ATC (RADAR)
09:27PM -33.0328 136.3767 272° West 387 445 36,000  Level Aus ATC (RADAR)
09:27PM -33.0320 136.3360 272° West 389 448 36,000  Level FlightAware
09:28PM -33.0320 136.2520 270° West 389 448 36,000  Level FlightAware
09:28PM -33.0266 136.1650 270° West 382 440 36,000  Level Aus ATC (RADAR)
09:29PM -33.0250 136.0640 270° West 386 444 36,000  Level FlightAware
09:30PM -33.0230 135.9840 272° West 384 442 36,000  Level FlightAware
09:31PM -33.0200 135.8910 272° West 384 442 36,000  Level FlightAware
09:31PM -33.0159 135.8067 272° West 385 443 36,000  Level Aus ATC (RADAR)
09:31PM -33.0170 135.7960 272° West 385 443 36,000  Level FlightAware
09:32PM -33.0140 135.6850 272° West 384 442 36,000  Level FlightAware
09:33PM -33.0112 135.6159 272° West 388 447 36,000  Level Aus ATC (RADAR)
09:33PM -33.0120 135.6130 272° West 384 442 36,000  Level FlightAware
09:33PM -33.0080 135.5230 273° West 385 443 36,000  Level FlightAware
09:34PM -33.0060 135.4410 272° West 385 443 36,000 60 Level FlightAware
09:34PM -33.0025 135.3841 272° West 388 447 36,100  Climbing Aus ATC (RADAR)
09:35PM -33.0030 135.3380 272° West 385 443 36,000 -120 Descending FlightAware
09:36PM -33.0010 135.2660 272° West 385 443 36,000 60 Level FlightAware
09:36PM -32.9962 135.1834 272° West 387 445 36,100  Climbing Aus ATC (RADAR)
09:36PM -32.9980 135.1940 272° West 385 443 36,000 -120 Descending FlightAware
09:37PM -32.9930 135.0780 273° West 384 442 36,000  Level FlightAware
09:38PM -32.9910 135.0060 273° West 384 442 36,000 120 Level FlightAware
09:38PM -32.9880 134.9730 273° West 385 443 36,100  Climbing Aus ATC (RADAR)
09:39PM -32.9890 134.9160 271° West 384 442 36,000  Descending FlightAware
09:39PM -32.9801 134.7948 271° West 383 441 36,100  Climbing Aus ATC (RADAR)
09:39PM -32.9870 134.8440 271° West 384 442 36,000 -180 Descending FlightAware
09:40PM -32.9840 134.7720 273° West 384 442 36,000  Level FlightAware
09:41PM -32.9820 134.7000 272° West 384 442 36,000 60 Level FlightAware
09:41PM -32.9704 134.5529 272° West 384 442 36,100  Climbing Aus ATC (RADAR)
09:41PM -32.9800 134.6280 272° West 384 442 36,000 -120 Descending FlightAware
09:42PM -32.9780 134.5380 271° West 384 442 36,000  Level FlightAware
09:43PM -32.9750 134.4660 273° West 384 442 36,000  Level FlightAware
09:43PM -32.9730 134.3940 272° West 384 442 36,000  Level FlightAware
09:44PM -32.9710 134.3220 272° West 384 442 36,000  Level FlightAware
09:45PM -32.9690 134.2500 272° West 384 442 36,000  Level FlightAware
09:45PM -32.9476 134.0308 100° East 36,000  Level Aus ATC (Calculated)
09:46PM -32.9660 134.1600 272° West 384 442 36,000  Level FlightAware
09:46PM -32.9640 134.0880 272° West 384 442 36,000  Level FlightAware
09:49PM -32.9262 133.5735 273° West  Level FlightAware Approximate
09:50PM -32.9199 133.4459 273° West  Level FlightAware Approximate
09:50PM -32.9176 133.3988 270° West 36,000  Level Aus ATC (Calculated)
09:52PM -32.9072 133.1947 273° West  Level FlightAware Approximate
09:53PM -32.9005 133.0671 274° West  Level FlightAware Approximate
09:54PM -32.8937 132.9396 274° West  Level FlightAware Approximate
09:55PM -32.8868 132.8121 274° West  Level FlightAware Approximate
09:55PM -32.8793 132.6752 270° West 36,000  Level Aus ATC (Calculated)
09:56PM -32.8798 132.6846 274° West  Level FlightAware Approximate
09:57PM -32.8677 132.4719 274° West  Level FlightAware Approximate
09:58PM -32.8604 132.3449 274° West  Level FlightAware Approximate
09:59PM -32.8596 132.3323 274° West  Level FlightAware Approximate
09:59PM -32.8536 132.2354 270° West 36,000  Level Aus ATC (Calculated)
10:01PM -32.8385 131.9879 274° West  Level FlightAware Approximate
10:02PM -32.8306 131.8609 274° West  Level FlightAware Approximate
10:03PM -32.8225 131.7340 274° West  Level FlightAware Approximate
10:03PM -32.8119 131.5717 270° West 36,000  Level Aus ATC (Calculated)
10:04PM -32.8143 131.6071 274° West  Level FlightAware Approximate
10:05PM -32.8033 131.4406 274° West  Level FlightAware Approximate
10:06PM -32.7948 131.3138 275° West  Level FlightAware Approximate
10:07PM -32.7862 131.1870 275° West  Level FlightAware Approximate
10:08PM -32.7774 131.0602 275° West  Level FlightAware Approximate
10:08PM -32.7661 130.9003 270° West 36,000  Level Aus ATC (Calculated)
10:09PM -32.7685 130.9334 275° West  Level FlightAware Approximate
10:10PM -32.7595 130.8067 275° West  Level FlightAware Approximate
10:11PM -32.7504 130.6800 275° West  Level FlightAware Approximate
10:12PM -32.7383 130.5160 275° West  Level FlightAware Approximate
10:12PM -32.7331 130.4462 270° West 36,000  Level Aus ATC (Calculated)
10:13PM -32.7158 130.2163 270° West 36,000  Level Aus ATC (Calculated)
10:14PM -32.7161 130.2203 275° West  Level FlightAware Approximate
10:15PM -32.7056 130.0834 275° West  Level FlightAware Approximate
10:16PM -32.6957 129.9569 275° West  Level FlightAware Approximate
10:17PM -32.6857 129.8303 275° West  Level FlightAware Approximate
10:18PM -32.6756 129.7039 275° West  Level FlightAware Approximate
10:18PM -32.6666 129.5920 270° West 36,000  Level Aus ATC (Calculated)
10:19PM -32.6653 129.5774 275° West  Level FlightAware Approximate
10:20PM -32.6550 129.4509 276° West  Level FlightAware Approximate
10:21PM -32.6452 129.3329 276° West  Level FlightAware Approximate
10:22PM -32.6346 129.2065 276° West  Level FlightAware Approximate
10:23PM -32.6238 129.0801 276° West  Level FlightAware Approximate
10:23PM -32.6165 128.9944 270° West 36,000  Level Aus ATC (Calculated)
10:24PM -32.6129 128.9538 276° West  Level FlightAware Approximate
10:25PM -32.6019 128.8275 276° West  Level FlightAware Approximate
10:26PM -32.5937 128.7334 276° West  Level FlightAware Approximate
10:26PM -32.5893 128.6834 270° West 36,000  Level Aus ATC (Calculated)
10:27PM -32.5825 128.6072 276° West  Level FlightAware Approximate
10:28PM -32.5734 128.5067 276° West  Level FlightAware Approximate
10:28PM -32.5663 128.4270 270° West 36,000  Level Aus ATC (Calculated)
10:29PM -32.5733 128.3798 276° West  Level Estimated
10:30PM -32.5539 128.2925 276° West  Level FlightAware Approximate
10:31PM -32.5422 128.1664 276° West  Level FlightAware Approximate
10:32PM -32.5303 128.0403 276° West  Level FlightAware Approximate
10:33PM -32.5183 127.9142 276° West  Level FlightAware Approximate
10:33PM -32.5041 127.7646 270° West 38,000  Level Aus ATC (Calculated)
10:34PM -32.5062 127.7882 276° West  Level FlightAware Approximate
10:35PM -32.4867 127.5862 277° West  Level FlightAware Approximate
10:36PM -32.4743 127.4602 277° West  Level FlightAware Approximate
10:37PM -32.4617 127.3344 277° West  Level FlightAware Approximate
10:38PM -32.4490 127.2085 277° West  Level FlightAware Approximate
10:38PM -32.4498 127.2158 270° West 38,000  Level Aus ATC (Calculated)
10:39PM -32.4362 127.0827 277° West  Level FlightAware Approximate
10:40PM -32.4233 126.9569 277° West  Level FlightAware Approximate
10:41PM -32.4175 126.9013 277° West  Level FlightAware Approximate
10:42PM -32.4044 126.7756 277° West  Level FlightAware Approximate
10:43PM -32.3912 126.6499 277° West  Level FlightAware Approximate
10:43PM -32.3847 126.5894 269° West 38,000  Level Aus ATC (Calculated)
10:44PM -32.3778 126.5243 277° West  Level FlightAware Approximate
10:45PM -32.3643 126.3989 277° West  Level FlightAware Approximate
10:46PM -32.3507 126.2733 277° West  Level FlightAware Approximate
10:46PM -32.3425 126.1984 269° West 38,000  Level Aus ATC (Calculated)
10:48PM -32.3426 126.0022 270° West  Level Estimated
10:48PM -32.3166 125.9640 269° West 38,000  Level Aus ATC (Calculated)
10:49PM -32.3402 125.8756 271° West  Level FlightAware Approximate
10:50PM -32.3140 125.7721 271° West  Level FlightAware Approximate
10:51PM -32.3121 125.6455 271° West  Level FlightAware Approximate
10:51PM -32.2725 125.5735 269° West 38,000  Level Aus ATC (Calculated)
10:52PM -32.3101 125.5190 271° West  Level FlightAware Approximate
10:53PM -32.2713 125.3901 270° West  Level FlightAware Approximate
10:53PM -32.2630 125.3799 268° West 38,000  Level Aus ATC (Calculated)
10:54PM -32.2703 125.2637 270° West  Level FlightAware Approximate
10:55PM -32.2616 125.1544 270° West  Level FlightAware Approximate
10:55PM -32.2616 125.1488 268° West 38,000  Level Aus ATC (Calculated)
10:56PM -32.2607 125.0279 270° West  Level FlightAware Approximate
10:57PM -32.2597 124.9085 270° West  Level FlightAware Approximate
10:57PM -32.2588 124.8021 269° West 38,000  Level Aus ATC (Calculated)
10:58PM -32.2586 124.7820 271° West  Level FlightAware Approximate
10:59PM -32.2564 124.5766 271° West  Level FlightAware Approximate
10:59PM -32.2563 124.5709 269° West 38,000  Level Aus ATC (Calculated)
11:00PM -32.2549 124.4501 271° West  Level FlightAware Approximate
11:01PM -32.2534 124.3307 271° West  Level FlightAware Approximate
11:02PM -32.2516 124.2042 271° West  Level FlightAware Approximate
11:03PM -32.2498 124.0778 271° West  Level FlightAware Approximate
11:03PM -32.2484 123.9932 269° West 38,000  Level Aus ATC (Calculated)
11:03PM -32.2484 123.9932 269° West 38,000  Level Aus ATC (Calculated)
11:05PM -32.2455 123.8183 271° West  Level FlightAware Approximate
11:06PM -32.2433 123.6919 271° West  Level FlightAware Approximate
11:07PM -32.2409 123.5655 271° West  Level FlightAware Approximate
11:07PM -32.2402 123.5311 268° West 38,000  Level Aus ATC (Calculated)
11:08PM -32.2384 123.4390 271° West  Level FlightAware Approximate
11:09PM -32.2354 123.2930 271° West  Level FlightAware Approximate
11:10PM -32.2326 123.1666 271° West  Level FlightAware Approximate
11:11PM -32.2297 123.0402 272° West  Level FlightAware Approximate
11:12PM -32.2280 122.9138 266° West  Level Estimated
11:12PM -32.2276 122.9536 268° West 38,000  Level Aus ATC (Calculated)
11:13PM -32.2332 122.7876 267° West  Level FlightAware Approximate
11:14PM -32.2376 122.7136 267° West  Level FlightAware Approximate
11:14PM -32.2218 122.7226 268° West 38,000  Level Aus ATC (Calculated)
11:16PM -32.2319 122.4911 267° West  Level FlightAware Approximate
11:17PM -32.2372 122.3649 267° West  Level FlightAware Approximate
11:17PM -32.2090 122.2608 267° West 38,000  Level Aus ATC (Calculated)
11:18PM -32.2423 122.2385 267° West  Level FlightAware Approximate
11:19PM -32.2206 122.0210 267° West  Level FlightAware Approximate
11:19PM -32.1983 121.9145 266° West 38,000  Level Aus ATC (Calculated)
11:20PM -32.2266 121.8948 267° West  Level FlightAware Approximate
11:21PM -32.2324 121.7685 267° West  Level FlightAware Approximate
11:22PM -32.2133 121.6370 266° West  Level FlightAware Approximate
11:22PM -32.2002 121.6995 266° West 38,000  Level Aus ATC (Calculated)
11:23PM -32.2199 121.5108 266° West  Level FlightAware Approximate
11:24PM -32.2135 121.4598 266° West  Level FlightAware Approximate
11:24PM -32.2221 121.3009 266° West 38,000  Level Aus ATC (Calculated)
11:25PM -32.2203 121.3337 266° West  Level FlightAware Approximate
11:26PM -32.2302 121.1473 266° West  Level FlightAware Approximate
11:27PM -32.2367 121.0211 266° West  Level FlightAware Approximate
11:27PM -32.2427 120.9021 267° West 38,000  Level Aus ATC (Calculated)
11:28PM -32.2431 120.8949 267° West  Level FlightAware Approximate
11:29PM -32.2500 120.7548 267° West  Level FlightAware Approximate
11:29PM -32.2477 120.8023 267° West 38,000  Level Aus ATC (Calculated)
11:30PM -32.2621 120.5031 267° West 38,000  Level Aus ATC (Calculated)
11:31PM -32.2593 120.5619 267° West  Level FlightAware Approximate
11:32PM -32.2684 120.3671 267° West  Level FlightAware Approximate
11:32PM -32.2668 120.4033 267° West 38,000  Level Aus ATC (Calculated)
11:33PM -32.2612 120.2418 268° West  Level Estimated
11:34PM -32.2774 120.1690 267° West  Level FlightAware Approximate
11:34PM -32.2751 120.2279 267° West 380 437 38,100  Level Aus ATC (RADAR)
11:35PM -32.2802 120.0487 268° West 381 438 38,100  Level Aus ATC (RADAR)
11:35PM -32.2812 120.0172 268° West 380 437 38,100  Level Aus ATC (RADAR)
11:37PM -32.2902 119.8057 267° West 380 437 38,100  Level Aus ATC (RADAR)
11:40PM -32.3045 119.4359 267° West 380 437 38,100  Level Aus ATC (RADAR)
11:41PM -32.3150 119.2460 266° West 380 437 38,100  Level Aus ATC (RADAR)
11:42PM -32.3156 119.2143 269° West 380 437 38,100 -120 Level Aus ATC (RADAR)
11:43PM -32.3200 119.1120 269° West 386 444 38,000 -120 Descending FlightAware
11:43PM -32.3230 119.0160 268° West 385 443 38,000  Level FlightAware
11:44PM -32.3260 118.9320 268° West 386 444 38,000  Level FlightAware
11:45PM -32.3290 118.8400 268° West 387 445 38,000  Level FlightAware
11:45PM -32.3320 118.7530 268° West 388 447 38,000  Level FlightAware
11:46PM -32.3350 118.6750 267° West 389 448 38,000  Level FlightAware
11:47PM -32.3380 118.5720 268° West 390 449 38,000  Level FlightAware
11:48PM -32.3410 118.4870 268° West 391 450 38,000 60 Level FlightAware
11:48PM -32.3416 118.4233 268° West 382 440 38,100  Climbing Aus ATC (RADAR)
11:48PM -32.3430 118.4020 268° West 391 450 38,000 -120 Descending FlightAware
11:49PM -32.3460 118.3120 268° West 393 452 38,000 60 Level FlightAware
11:49PM -32.3475 118.2310 268° West 385 443 38,100  Climbing Aus ATC (RADAR)
11:50PM -32.3490 118.2220 268° West 393 452 38,000 -600 Descending FlightAware
11:50PM -32.3510 118.1230 269° West 389 448 37,600 -1,440 Descending FlightAware
11:51PM -32.3540 118.0380 268° West 386 444 36,000 -2,640 Descending FlightAware
11:52PM -32.3560 117.9550 268° West 391 450 34,100 -2,940 Descending FlightAware
11:52PM -32.3582 117.8692 268° West 377 434 32,300 -2,820 Descending Aus ATC (RADAR)
11:52PM -32.3590 117.8590 268° West 393 452 32,000 -2,160 Descending FlightAware
11:53PM -32.3610 117.7730 268° West 385 443 30,600 -2,100 Descending FlightAware
11:54PM -32.3630 117.6890 268° West 377 434 29,200 -2,100 Descending FlightAware
11:54PM -32.3560 117.6193 268° West 366 421 28,100 -2,160 Descending Aus ATC (RADAR)
11:55PM -32.3490 117.5960 268° West 374 430 27,600 -2,160 Descending FlightAware
11:55PM -32.3310 117.5190 285° West 370 426 26,200 -2,100 Descending FlightAware
11:56PM -32.3100 117.4330 286° West 363 418 24,700 -2,100 Descending FlightAware
11:57PM -32.2920 117.3560 285° West 358 412 23,300 -1,980 Descending FlightAware
11:57PM -32.2710 117.2720 286° West 350 403 21,900 -1,920 Descending FlightAware
11:58PM -32.2540 117.2000 286° West 345 397 20,600 -1,980 Descending FlightAware
11:59PM -32.2340 117.1180 286° West 338 389 19,100 -1,920 Descending FlightAware
11:59PM -32.2170 117.0480 286° West 333 383 17,900 -1,800 Descending FlightAware
12:00AM -32.2000 116.9790 286° West 326 375 16,700 -1,140 Descending FlightAware
12:01AM -32.1800 116.9050 288° West 292 336 16,300 -960 Descending FlightAware
12:02AM -32.1490 116.8520 305° West 293 337 15,400 -1,260 Descending FlightAware
12:02AM -32.1263 116.8188 305° West 282 325 14,900 -1,500 Descending Aus ATC (RADAR)
12:02AM -32.1150 116.8020 305° West 288 331 14,400 -1,560 Descending FlightAware
12:03AM -32.0800 116.7480 307° West 284 327 13,400 -1,320 Descending FlightAware
12:03AM -32.0607 116.7207 307° West 275 316 13,000 -1,380 Descending Aus ATC (RADAR)
12:04AM -32.0480 116.7010 307° West 280 322 12,500 -1,440 Descending FlightAware
12:04AM -32.0110 116.6450 308° West 276 318 11,500 -1,260 Descending FlightAware
12:05AM -31.9815 116.6007 308° West 272 313 10,800 -1,380 Descending Aus ATC (RADAR)
12:05AM -31.9790 116.5970 308° West 287 330 10,600 -1,800 Descending FlightAware
12:06AM -31.9550 116.5600 307° West 286 329 9,800 -1,440 Descending FlightAware
12:06AM -31.9380 116.5310 305° West 280 322 9,300 -1,080 Descending FlightAware
12:06AM -31.9188 116.4943 305° West 263 303 8,900 -1,200 Descending Aus ATC (RADAR)
12:06AM -31.9180 116.4910 305° West 258 297 8,700 -1,320 Descending FlightAware
12:07AM -31.9000 116.4560 301° West 246 283 8,200 -1,140 Descending FlightAware
12:07AM -31.8810 116.4300 311° West 252 290 7,700 -1,140 Descending FlightAware
12:08AM -31.8540 116.4070 324° Northwest 246 283 7,200 -900 Descending FlightAware
12:08AM -31.8320 116.3870 322° Northwest 228 262 6,900 -1,020 Descending FlightAware
12:09AM -31.8090 116.3650 321° Northwest 215 247 6,300 -1,320 Descending FlightAware
12:09AM -31.7890 116.3460 321° Northwest 209 241 5,700 -1,380 Descending FlightAware
12:09AM -31.7790 116.3350 317° Northwest 205 236 5,400 -1,020 Descending FlightAware
12:10AM -31.7760 116.3180 282° West 196 226 5,200 -960 Descending FlightAware
12:10AM -31.7760 116.2870 270° West 191 220 4,700 -1,080 Descending FlightAware
12:11AM -31.7770 116.2660 267° West 191 220 4,300 -1,200 Descending FlightAware
12:11AM -31.7770 116.2460 270° West 194 223 3,900 -480 Descending FlightAware
12:11AM -31.7760 116.2140 272° West 195 224 3,900  Level FlightAware
12:12AM -31.7840 116.1920 247° West 188 216 3,900 -480 Level FlightAware
12:12AM -31.7980 116.1850 203° Southwest 186 214 3,600 -840 Descending FlightAware
12:13AM -31.8220 116.1760 198° South 175 201 3,300 -840 Descending FlightAware
12:13AM -31.8320 116.1670 217° Southwest 170 196 3,000 -900 Descending FlightAware
12:13AM -31.8440 116.1480 233° Southwest 161 185 2,700 -360 Descending FlightAware
12:14AM -31.8550 116.1260 240° Southwest 168 193 2,700 -480 Level FlightAware
12:14AM -31.8660 116.1050 238° Southwest 171 197 2,300 -900 Descending FlightAware
12:15AM -31.8790 116.0800 239° Southwest 163 188 1,900 -840 Descending FlightAware
12:15AM -31.8900 116.0580 240° Southwest 158 182 1,500 -780 Descending FlightAware
12:16AM -31.8990 116.0410 238° Southwest 139 160 1,200 -780 Descending FlightAware
12:16AM -31.9090 116.0210 239° Southwest 139 160 800 -840 Descending FlightAware
12:16AM -31.9140 116.0110 239° Southwest 138 159 600 -780 Descending FlightAware
12:17AM -31.9230 115.9950 236° Southwest 136 157 300 -720 Descending FlightAware
12:17AM -31.9330 115.9750 239° Southwest 136 157 -600 Descending FlightAware